Time;durP1;ratioP1;P1;durP2;ratioP2;P2;SDS_P1;SDS_P2;PMS_P1;PMS_P2;Temp;Humidity;BMP_temperature;BMP_pressure;BME280_temperature;BME280_humidity;BME280_pressure;Samples;Min_cycle;Max_cycle;Signal;HPM_P1;HPM_P2
2021/07/06 00:02:20;;;;;;;4.77;1.97;;;16.60;99.90;;;;;;5072401;28;20183;-76
2021/07/06 00:04:48;;;;;;;4.03;1.63;;;16.50;99.90;;;;;;5054250;28;20239;-76
2021/07/06 00:07:17;;;;;;;2.00;1.90;;;16.50;99.90;;;;;;5072479;28;20187;-76
2021/07/06 00:09:43;;;;;;;3.30;1.80;;;16.60;99.90;;;;;;5072271;28;20184;-76
2021/07/06 00:12:09;;;;;;;1.53;1.43;;;16.60;99.90;;;;;;5055794;28;20178;-75
2021/07/06 00:14:34;;;;;;;3.77;1.90;;;16.60;99.90;;;;;;5073767;28;20195;-75
2021/07/06 00:17:00;;;;;;;1.70;1.57;;;16.60;99.90;;;;;;5055919;28;20227;-75
2021/07/06 00:19:26;;;;;;;3.87;1.97;;;16.60;99.90;;;;;;5055803;28;20180;-74
2021/07/06 00:21:51;;;;;;;1.97;1.63;;;16.60;99.90;;;;;;5054463;28;20170;-76
2021/07/06 00:24:17;;;;;;;5.97;2.27;;;16.60;99.90;;;;;;5069562;28;20269;-76
2021/07/06 00:26:43;;;;;;;3.20;1.67;;;16.40;99.90;;;;;;5071743;28;20187;-75
2021/07/06 00:29:08;;;;;;;2.00;1.90;;;16.50;99.90;;;;;;5054025;28;20181;-75
2021/07/06 00:31:34;;;;;;;4.70;1.73;;;16.50;99.90;;;;;;5066124;28;20174;-76
2021/07/06 00:34:00;;;;;;;2.67;1.70;;;16.50;99.90;;;;;;5071648;28;20676;-75
2021/07/06 00:36:25;;;;;;;3.40;1.90;;;16.40;99.90;;;;;;5072355;28;20201;-75
2021/07/06 00:38:51;;;;;;;3.73;1.70;;;16.40;99.90;;;;;;5072315;28;20256;-75
2021/07/06 00:41:17;;;;;;;1.87;1.77;;;16.40;99.90;;;;;;5055265;28;20259;-76
2021/07/06 00:43:42;;;;;;;2.57;1.90;;;16.30;99.90;;;;;;5100163;22;20239;-77
2021/07/06 00:46:08;;;;;;;3.37;1.70;;;16.30;99.90;;;;;;5078459;28;20273;-79
2021/07/06 00:48:34;;;;;;;3.80;1.87;;;16.30;99.90;;;;;;5095925;28;20624;-80
2021/07/06 00:51:00;;;;;;;2.40;1.93;;;16.30;99.90;;;;;;5075718;28;20211;-79
2021/07/06 00:53:27;;;;;;;2.73;1.60;;;16.30;99.90;;;;;;5079068;28;20219;-79
2021/07/06 00:55:55;;;;;;;3.33;1.50;;;16.40;99.90;;;;;;5078414;28;20200;-80
2021/07/06 00:58:22;;;;;;;2.53;1.80;;;;;;;;;;5096634;28;20183;-79
2021/07/06 01:00:48;;;;;;;2.57;1.80;;;15.60;99.90;;;;;;5076121;28;20180;-80
2021/07/06 01:03:13;;;;;;;3.57;2.10;;;16.10;99.90;;;;;;5092769;28;20183;-79
2021/07/06 01:05:39;;;;;;;4.33;1.60;;;16.10;99.90;;;;;;5095299;28;20202;-79
2021/07/06 01:08:08;;;;;;;2.00;1.80;;;16.20;99.90;;;;;;5078913;28;20194;-79
2021/07/06 01:10:36;;;;;;;3.83;2.30;;;16.20;99.90;;;;;;5078361;28;20181;-79
2021/07/06 01:13:03;;;;;;;2.83;2.03;;;16.00;99.90;;;;;;5078789;28;20209;-79
2021/07/06 01:15:30;;;;;;;2.17;1.77;;;16.00;99.90;;;;;;5078358;28;20204;-78
2021/07/06 01:18:06;;;;;;;3.70;1.63;;;16.10;99.90;;;;;;5078519;28;20327;-79
2021/07/06 01:20:34;;;;;;;2.37;2.10;;;16.10;99.90;;;;;;5096463;28;20174;-79
2021/07/06 01:23:01;;;;;;;2.60;1.47;;;16.10;99.90;;;;;;5078021;28;20559;-79
2021/07/06 01:25:27;;;;;;;2.87;1.70;;;16.00;99.90;;;;;;5096552;28;20570;-78
2021/07/06 01:27:53;;;;;;;4.27;1.90;;;15.90;99.90;;;;;;5077639;28;20176;-79
2021/07/06 01:30:19;;;;;;;2.67;1.77;;;15.90;99.90;;;;;;5097513;28;20176;-79
2021/07/06 01:32:47;;;;;;;2.37;2.13;;;15.90;99.90;;;;;;5097715;28;20631;-79
2021/07/06 01:35:15;;;;;;;2.20;2.03;;;16.00;99.90;;;;;;5096260;28;20224;-79
2021/07/06 01:37:46;;;;;;;2.33;1.40;;;15.80;99.90;;;;;;5076951;28;20684;-79
2021/07/06 01:40:13;;;;;;;1.93;1.73;;;;;;;;;;5077920;28;20172;-79
2021/07/06 01:42:38;;;;;;;1.87;1.67;;;15.70;99.90;;;;;;5077939;28;20261;-79
2021/07/06 01:45:09;;;;;;;2.67;1.90;;;15.80;99.90;;;;;;5077602;28;20652;-79
2021/07/06 01:47:39;;;;;;;1.93;1.83;;;15.80;99.90;;;;;;5077622;28;20216;-79
2021/07/06 01:50:10;;;;;;;3.43;1.70;;;15.80;99.90;;;;;;5095729;28;20265;-79
2021/07/06 01:52:42;;;;;;;1.77;1.37;;;15.80;99.90;;;;;;5088819;28;20730;-79
2021/07/06 01:55:10;;;;;;;2.30;1.80;;;15.60;99.90;;;;;;5076587;28;20218;-79
2021/07/06 01:57:36;;;;;;;2.63;1.90;;;15.60;99.90;;;;;;5094503;28;20196;-78
2021/07/06 02:00:04;;;;;;;3.30;1.70;;;15.70;99.90;;;;;;5094850;28;20188;-79
2021/07/06 02:02:30;;;;;;;5.53;2.30;;;15.50;99.90;;;;;;5095969;28;20184;-78
2021/07/06 02:04:55;;;;;;;4.07;2.10;;;15.40;99.90;;;;;;5077353;28;20540;-78
2021/07/06 02:07:21;;;;;;;3.77;2.17;;;15.60;99.90;;;;;;5094993;28;20176;-79
2021/07/06 02:09:46;;;;;;;2.83;1.93;;;15.70;99.90;;;;;;5077616;28;20249;-79
2021/07/06 02:12:12;;;;;;;2.10;1.90;;;15.70;99.90;;;;;;5077748;28;20654;-79
2021/07/06 02:14:38;;;;;;;2.37;1.80;;;15.70;99.90;;;;;;5077814;28;20197;-79
2021/07/06 02:17:03;;;;;;;3.50;1.80;;;15.70;99.90;;;;;;5095563;28;20192;-79
2021/07/06 02:19:29;;;;;;;2.37;1.90;;;15.70;99.90;;;;;;5095644;28;20180;-79
2021/07/06 02:21:55;;;;;;;1.87;1.77;;;15.70;99.90;;;;;;5077561;28;20226;-78
2021/07/06 02:24:20;;;;;;;4.47;2.37;;;15.70;99.90;;;;;;5078738;28;20200;-79
2021/07/06 02:26:46;;;;;;;2.83;1.77;;;15.70;99.90;;;;;;5079195;28;20637;-78
2021/07/06 02:29:12;;;;;;;4.27;1.97;;;15.70;99.90;;;;;;5078936;28;20187;-78
2021/07/06 02:31:37;;;;;;;2.93;2.00;;;15.60;99.90;;;;;;5079215;28;20268;-79
2021/07/06 02:34:03;;;;;;;4.87;2.00;;;15.60;99.90;;;;;;5097559;28;20218;-79
2021/07/06 02:36:28;;;;;;;2.90;2.00;;;15.60;99.90;;;;;;5075082;28;20213;-78
2021/07/06 02:38:54;;;;;;;2.70;1.80;;;15.50;99.90;;;;;;5074213;28;20183;-79
2021/07/06 02:41:20;;;;;;;2.87;2.13;;;15.50;99.90;;;;;;5077940;28;20176;-78
2021/07/06 02:43:45;;;;;;;2.80;1.70;;;15.50;99.90;;;;;;5095091;28;20215;-78
2021/07/06 02:46:11;;;;;;;2.67;1.63;;;15.60;99.90;;;;;;5095628;28;20271;-78
2021/07/06 02:48:38;;;;;;;4.33;2.00;;;15.60;99.90;;;;;;5083748;28;20647;-79
2021/07/06 02:51:04;;;;;;;3.97;1.90;;;15.50;99.90;;;;;;5083596;28;20177;-78
2021/07/06 02:53:29;;;;;;;2.70;1.93;;;15.50;99.90;;;;;;5082828;28;20293;-79
2021/07/06 02:55:55;;;;;;;2.83;1.80;;;15.40;99.90;;;;;;5082650;28;20204;-78
2021/07/06 02:58:21;;;;;;;3.13;1.90;;;15.30;99.90;;;;;;5082161;28;20183;-77
2021/07/06 03:00:46;;;;;;;3.13;1.63;;;15.20;99.90;;;;;;5082457;28;20646;-79
2021/07/06 03:03:12;;;;;;;2.03;1.80;;;15.20;99.90;;;;;;5082940;28;20180;-79
2021/07/06 03:05:38;;;;;;;4.00;1.60;;;15.20;99.90;;;;;;5083127;28;20283;-79
2021/07/06 03:08:05;;;;;;;2.23;2.00;;;15.10;99.90;;;;;;5083278;28;20171;-78
2021/07/06 03:10:33;;;;;;;3.60;2.13;;;15.00;99.90;;;;;;5082606;28;20720;-78
2021/07/06 03:12:59;;;;;;;2.00;1.90;;;14.90;99.90;;;;;;5083054;28;20649;-78
2021/07/06 03:15:27;;;;;;;2.60;1.90;;;14.80;99.90;;;;;;5082263;28;20192;-77
2021/07/06 03:17:54;;;;;;;3.30;2.10;;;14.90;99.90;;;;;;5062444;28;20675;-78
2021/07/06 03:20:22;;;;;;;3.43;2.13;;;14.90;99.90;;;;;;5061392;28;20173;-79
2021/07/06 03:22:48;;;;;;;1.83;1.70;;;15.00;99.90;;;;;;5084278;28;20251;-79
2021/07/06 03:25:16;;;;;;;6.20;1.80;;;15.10;99.90;;;;;;5079772;28;20217;-79
2021/07/06 03:27:43;;;;;;;3.37;2.13;;;15.10;99.90;;;;;;5083459;28;20230;-78
2021/07/06 03:30:21;;;;;;;4.57;1.80;;;15.10;99.90;;;;;;5060987;28;20188;-78
2021/07/06 03:32:48;;;;;;;5.30;2.10;;;15.00;99.90;;;;;;5092557;28;20172;-79
2021/07/06 03:35:14;;;;;;;1.97;1.87;;;15.00;99.90;;;;;;5079409;28;20259;-79
2021/07/06 03:37:40;;;;;;;2.30;1.70;;;15.00;99.90;;;;;;5098070;28;20200;-78
2021/07/06 03:40:08;;;;;;;2.03;1.80;;;15.00;99.90;;;;;;5079620;28;20169;-79
2021/07/06 03:42:34;;;;;;;3.37;2.10;;;14.90;99.90;;;;;;5080672;28;20165;-78
2021/07/06 03:45:00;;;;;;;2.50;2.07;;;15.00;99.90;;;;;;5081386;28;20200;-79
2021/07/06 03:47:26;;;;;;;2.90;1.70;;;15.00;99.90;;;;;;5100114;28;20630;-79
2021/07/06 03:49:52;;;;;;;3.87;1.57;;;15.00;99.90;;;;;;5097701;28;20177;-78
2021/07/06 03:52:17;;;;;;;1.87;1.70;;;15.00;99.90;;;;;;5098251;28;20183;-78
2021/07/06 03:54:43;;;;;;;4.17;1.70;;;14.90;99.90;;;;;;5076179;28;20208;-79
2021/07/06 03:57:09;;;;;;;2.30;1.60;;;14.90;99.90;;;;;;5099620;28;20200;-79
2021/07/06 03:59:34;;;;;;;1.93;1.80;;;15.00;99.90;;;;;;5099633;28;20202;-79
2021/07/06 04:02:00;;;;;;;2.43;1.50;;;14.90;99.90;;;;;;5080184;28;20257;-77
2021/07/06 04:04:26;;;;;;;6.47;1.80;;;15.00;99.90;;;;;;5090109;28;20200;-78
2021/07/06 04:06:51;;;;;;;2.17;1.80;;;15.10;99.90;;;;;;5089100;28;20173;-78
2021/07/06 04:09:17;;;;;;;2.97;1.53;;;15.10;99.90;;;;;;5098498;28;20186;-79
2021/07/06 04:11:43;;;;;;;2.93;1.63;;;15.10;99.90;;;;;;5073118;28;20632;-79
2021/07/06 04:14:10;;;;;;;1.87;1.70;;;15.10;99.90;;;;;;5089686;28;20206;-79
2021/07/06 04:16:36;;;;;;;1.87;1.53;;;15.20;99.90;;;;;;5079461;28;20619;-79
2021/07/06 04:19:02;;;;;;;5.13;1.70;;;15.10;99.90;;;;;;5077726;28;20176;-78
2021/07/06 04:21:28;;;;;;;5.40;2.30;;;15.00;99.90;;;;;;5077830;28;20176;-78
2021/07/06 04:23:54;;;;;;;1.93;1.70;;;15.10;99.90;;;;;;5077281;28;20200;-78
2021/07/06 04:26:19;;;;;;;4.10;1.90;;;15.00;99.90;;;;;;5070213;28;20189;-78
2021/07/06 04:28:45;;;;;;;3.83;1.80;;;15.10;99.90;;;;;;5080562;28;20199;-79
2021/07/06 04:31:11;;;;;;;2.00;1.90;;;15.20;99.90;;;;;;5076263;28;20193;-79
2021/07/06 04:33:36;;;;;;;2.20;2.00;;;15.10;99.90;;;;;;5079209;28;20210;-78
2021/07/06 04:36:02;;;;;;;5.20;2.40;;;15.30;99.90;;;;;;5097863;28;20196;-78
2021/07/06 04:38:28;;;;;;;2.07;1.80;;;15.30;99.90;;;;;;5098510;28;20175;-79
2021/07/06 04:40:55;;;;;;;2.23;2.03;;;15.40;99.90;;;;;;5099047;28;20184;-79
2021/07/06 04:43:22;;;;;;;3.57;1.70;;;15.50;99.90;;;;;;5080070;28;20190;-78
2021/07/06 04:45:48;;;;;;;1.70;1.60;;;15.60;99.90;;;;;;5099289;28;20200;-79
2021/07/06 04:48:13;;;;;;;2.83;1.57;;;15.70;99.90;;;;;;5094762;28;20192;-78
2021/07/06 04:50:39;;;;;;;2.50;2.10;;;15.70;99.90;;;;;;5095576;28;20181;-78
2021/07/06 04:53:07;;;;;;;4.37;1.50;;;15.80;99.90;;;;;;5103212;28;20207;-79
2021/07/06 04:55:35;;;;;;;2.20;1.70;;;16.00;99.90;;;;;;5097568;28;20202;-82
2021/07/06 04:58:01;;;;;;;1.67;1.57;;;16.10;99.90;;;;;;5095203;28;20190;-79
2021/07/06 05:00:26;;;;;;;3.83;1.43;;;16.20;99.90;;;;;;5096838;28;20181;-80
2021/07/06 05:02:52;;;;;;;1.70;1.47;;;16.20;99.90;;;;;;5096475;28;20686;-81
2021/07/06 05:05:18;;;;;;;1.97;1.30;;;16.20;99.90;;;;;;5078669;28;20612;-79
2021/07/06 05:07:44;;;;;;;1.77;1.20;;;16.20;99.90;;;;;;5096651;28;20662;-79
2021/07/06 05:10:12;;;;;;;3.13;1.50;;;16.30;99.90;;;;;;5096792;28;20206;-80
2021/07/06 05:12:38;;;;;;;1.30;1.20;;;16.30;99.90;;;;;;5095877;28;20615;-79
2021/07/06 05:15:06;;;;;;;1.77;1.17;;;16.40;99.90;;;;;;5096975;28;20203;-79
2021/07/06 05:17:32;;;;;;;2.63;1.87;;;16.50;99.90;;;;;;5097031;28;20196;-79
2021/07/06 05:19:58;;;;;;;2.70;1.47;;;16.70;99.90;;;;;;5078641;28;20668;-79
2021/07/06 05:22:24;;;;;;;2.37;1.30;;;16.90;99.90;;;;;;5078390;28;20175;-80
2021/07/06 05:24:50;;;;;;;1.57;1.30;;;17.00;99.90;;;;;;5078463;28;20242;-80
2021/07/06 05:27:16;;;;;;;1.97;1.37;;;17.10;99.90;;;;;;5097361;28;20225;-79
2021/07/06 05:29:42;;;;;;;1.90;1.30;;;17.30;99.90;;;;;;5078729;28;20595;-80
2021/07/06 05:32:08;;;;;;;2.90;1.47;;;17.40;99.90;;;;;;5097112;28;20197;-80
2021/07/06 05:34:34;;;;;;;1.67;1.33;;;17.40;99.90;;;;;;5078945;28;20196;-79
2021/07/06 05:36:59;;;;;;;2.40;1.73;;;17.40;99.90;;;;;;5096808;28;20560;-80
2021/07/06 05:39:26;;;;;;;3.10;1.27;;;17.40;99.90;;;;;;5096721;28;20179;-80
2021/07/06 05:41:52;;;;;;;1.30;1.00;;;17.40;99.90;;;;;;5078864;28;20180;-80
2021/07/06 05:44:19;;;;;;;1.67;1.33;;;17.40;99.90;;;;;;5097005;28;20226;-80
2021/07/06 05:46:44;;;;;;;3.07;1.20;;;17.50;99.90;;;;;;5096264;28;20548;-79
2021/07/06 05:49:10;;;;;;;2.00;1.30;;;17.50;99.90;;;;;;5078121;28;20191;-79
2021/07/06 05:51:36;;;;;;;3.20;1.20;;;17.70;99.90;;;;;;5078563;28;20187;-80
2021/07/06 05:54:03;;;;;;;1.93;1.10;;;17.70;99.90;;;;;;5096534;28;20287;-80
2021/07/06 05:56:30;;;;;;;2.93;1.40;;;17.80;99.90;;;;;;5078388;28;20196;-80
2021/07/06 05:58:56;;;;;;;1.47;1.00;;;17.80;99.90;;;;;;5095777;28;20225;-79
2021/07/06 06:01:22;;;;;;;3.63;1.40;;;17.90;99.90;;;;;;5077960;28;20184;-79
2021/07/06 06:03:47;;;;;;;3.00;1.27;;;18.00;99.90;;;;;;5096314;28;20208;-79
2021/07/06 06:06:13;;;;;;;1.60;1.50;;;18.10;99.90;;;;;;5096638;28;20180;-80
2021/07/06 06:08:39;;;;;;;2.67;1.17;;;18.20;99.90;;;;;;5097084;28;20183;-82
2021/07/06 06:11:06;;;;;;;1.93;1.10;;;18.40;99.90;;;;;;5078284;28;20180;-81
2021/07/06 06:13:32;;;;;;;1.83;1.00;;;18.50;99.90;;;;;;5096258;28;20301;-80
2021/07/06 06:15:57;;;;;;;1.20;1.10;;;18.50;99.90;;;;;;5096557;28;20253;-80
2021/07/06 06:18:23;;;;;;;6.13;1.27;;;18.60;99.90;;;;;;5096716;28;20180;-80
2021/07/06 06:20:49;;;;;;;4.10;1.03;;;18.60;99.90;;;;;;5096981;28;20184;-80
2021/07/06 06:23:14;;;;;;;1.77;1.20;;;18.70;99.90;;;;;;5079100;28;20593;-80
2021/07/06 06:25:40;;;;;;;1.83;1.17;;;18.80;99.90;;;;;;5100679;28;20200;-80
2021/07/06 06:28:07;;;;;;;5.07;1.60;;;18.70;99.90;;;;;;5082274;28;20229;-80
2021/07/06 06:30:33;;;;;;;1.93;0.90;;;18.80;99.90;;;;;;5100194;28;20187;-80
2021/07/06 06:32:59;;;;;;;1.17;0.90;;;18.80;99.90;;;;;;5099587;28;20172;-80
2021/07/06 06:35:25;;;;;;;1.63;0.90;;;18.90;99.90;;;;;;5099740;28;20204;-79
2021/07/06 06:37:51;;;;;;;1.10;0.93;;;19.00;99.90;;;;;;5100375;28;20211;-80
2021/07/06 06:40:17;;;;;;;1.80;0.83;;;19.00;99.90;;;;;;5082156;28;20647;-78
2021/07/06 06:42:42;;;;;;;1.87;1.47;;;19.10;99.90;;;;;;5099930;28;20180;-79
2021/07/06 06:45:10;;;;;;;1.73;1.03;;;19.10;99.90;;;;;;5081660;28;20290;-80
2021/07/06 06:47:37;;;;;;;1.93;1.10;;;19.10;99.90;;;;;;5100373;28;20229;-79
2021/07/06 06:50:04;;;;;;;2.37;0.97;;;19.30;99.90;;;;;;5099990;28;20184;-80
2021/07/06 06:52:31;;;;;;;2.50;1.93;;;19.40;99.90;;;;;;5101163;28;20242;-80
2021/07/06 06:54:56;;;;;;;2.27;1.10;;;19.40;99.90;;;;;;5081987;28;20256;-79
2021/07/06 06:57:23;;;;;;;1.43;0.80;;;19.40;99.90;;;;;;5100011;28;20617;-80
2021/07/06 06:59:51;;;;;;;3.27;1.63;;;19.40;99.90;;;;;;5099841;28;20176;-80
2021/07/06 07:02:19;;;;;;;1.27;0.90;;;19.50;99.90;;;;;;5099799;28;20632;-80
2021/07/06 07:04:54;;;;;;;3.40;1.10;;;19.60;99.90;;;;;;5061834;28;20219;-80
2021/07/06 07:07:22;;;;;;;1.00;0.80;;;19.60;99.90;;;;;;5079044;28;20654;-80
2021/07/06 07:09:49;;;;;;;1.40;1.10;;;19.80;99.90;;;;;;5099829;28;20650;-80
2021/07/06 07:12:15;;;;;;;1.23;0.80;;;19.70;99.90;;;;;;5081438;28;20190;-81
2021/07/06 07:14:42;;;;;;;1.13;0.80;;;19.70;99.90;;;;;;5098951;28;20204;-80
2021/07/06 07:17:09;;;;;;;3.00;1.43;;;19.80;99.90;;;;;;5098944;28;20211;-80
2021/07/06 07:19:35;;;;;;;1.50;0.73;;;19.90;99.90;;;;;;5098483;28;20203;-80
2021/07/06 07:22:02;;;;;;;1.07;0.80;;;19.90;99.90;;;;;;5098969;28;20176;-80
2021/07/06 07:24:28;;;;;;;0.83;0.70;;;20.00;99.90;;;;;;5080979;28;20576;-79
2021/07/06 07:26:54;;;;;;;1.17;0.80;;;20.10;99.90;;;;;;5098572;28;20597;-79
2021/07/06 07:29:20;;;;;;;3.40;0.70;;;20.10;99.90;;;;;;5098943;28;20184;-79
2021/07/06 07:31:45;;;;;;;2.37;0.90;;;20.30;99.90;;;;;;5099011;28;20658;-80
2021/07/06 07:34:11;;;;;;;1.50;0.73;;;20.40;99.90;;;;;;5080899;28;20196;-80
2021/07/06 07:36:39;;;;;;;0.93;0.80;;;20.50;99.90;;;;;;5097939;28;20204;-80
2021/07/06 07:39:05;;;;;;;1.23;0.80;;;20.50;99.90;;;;;;5098879;28;20192;-79
2021/07/06 07:41:31;;;;;;;1.87;0.93;;;20.60;99.90;;;;;;5099021;28;20555;-80
2021/07/06 07:43:56;;;;;;;0.97;0.70;;;20.60;99.90;;;;;;5098918;28;20204;-80
2021/07/06 07:46:23;;;;;;;1.77;0.70;;;20.70;99.90;;;;;;5099055;28;20176;-80
2021/07/06 07:48:49;;;;;;;2.97;1.03;;;20.80;99.90;;;;;;5098706;28;20204;-79
2021/07/06 07:51:15;;;;;;;1.20;0.80;;;20.90;99.90;;;;;;5098899;28;20176;-80
2021/07/06 07:53:41;;;;;;;0.60;0.60;;;21.00;99.90;;;;;;5098682;28;20552;-80
2021/07/06 07:56:07;;;;;;;2.60;0.70;;;21.10;99.90;;;;;;5080748;28;20200;-80
2021/07/06 07:58:32;;;;;;;2.67;0.80;;;21.10;99.90;;;;;;5098813;28;20183;-79
2021/07/06 08:00:58;;;;;;;2.47;0.80;;;21.30;99.90;;;;;;5098901;28;20168;-79
2021/07/06 08:03:24;;;;;;;0.80;0.80;;;21.30;99.90;;;;;;5098609;28;20172;-80
2021/07/06 08:05:50;;;;;;;3.07;0.77;;;21.40;99.90;;;;;;5079908;28;20211;-80
2021/07/06 08:08:16;;;;;;;2.60;0.80;;;21.40;99.90;;;;;;5098720;28;20172;-79
2021/07/06 08:10:42;;;;;;;2.73;0.93;;;21.40;99.90;;;;;;5098370;28;20183;-80
2021/07/06 08:13:09;;;;;;;1.43;0.77;;;21.50;99.90;;;;;;5098625;28;20172;-80
2021/07/06 08:15:35;;;;;;;0.70;0.70;;;21.60;99.90;;;;;;5098472;28;20223;-80
2021/07/06 08:18:02;;;;;;;1.30;0.60;;;21.80;99.90;;;;;;5098221;28;20200;-80
2021/07/06 08:20:27;;;;;;;3.03;1.13;;;21.80;99.90;;;;;;5098378;28;20181;-80
2021/07/06 08:22:56;;;;;;;0.70;0.70;;;22.00;99.90;;;;;;5098222;28;20255;-80
2021/07/06 08:25:23;;;;;;;0.80;0.80;;;22.10;99.90;;;;;;5097782;28;20678;-79
2021/07/06 08:27:49;;;;;;;3.97;2.00;;;22.20;99.90;;;;;;5097802;28;20188;-82
2021/07/06 08:30:15;;;;;;;3.00;1.17;;;22.60;99.90;;;;;;5097973;28;20172;-80
2021/07/06 08:32:41;;;;;;;1.80;1.70;;;22.80;99.90;;;;;;5098287;28;20182;-80
2021/07/06 08:35:07;;;;;;;4.30;1.87;;;22.90;99.90;;;;;;5096806;28;20211;-80
2021/07/06 08:37:32;;;;;;;1.00;0.90;;;23.00;99.90;;;;;;5078619;28;20583;-79
2021/07/06 08:39:59;;;;;;;1.03;0.90;;;23.00;99.90;;;;;;5097866;28;20177;-80
2021/07/06 08:42:26;;;;;;;2.20;1.10;;;23.00;99.90;;;;;;5098019;28;20192;-80
2021/07/06 08:44:52;;;;;;;3.57;2.00;;;23.00;99.90;;;;;;5079517;28;20584;-81
2021/07/06 08:47:18;;;;;;;2.53;1.80;;;23.00;99.90;;;;;;5098072;28;20204;-79
2021/07/06 08:49:48;;;;;;;4.50;1.40;;;23.00;99.90;;;;;;5080154;28;20180;-80
2021/07/06 08:52:16;;;;;;;4.20;1.00;;;23.00;99.90;;;;;;5079754;28;20198;-80
2021/07/06 08:54:42;;;;;;;2.10;0.93;;;23.10;99.90;;;;;;5098360;28;20249;-81
2021/07/06 08:57:08;;;;;;;2.17;0.73;;;23.20;99.90;;;;;;5098070;28;20283;-79
2021/07/06 08:59:38;;;;;;;2.80;0.87;;;23.20;99.90;;;;;;5097447;28;20690;-80
2021/07/06 09:02:04;;;;;;;1.03;0.90;;;23.30;99.90;;;;;;5096618;28;20165;-79
2021/07/06 09:04:46;;;;;;;1.53;0.90;;;23.30;99.90;;;;;;5078816;28;20210;-80
2021/07/06 09:07:12;;;;;;;1.83;0.70;;;23.40;99.90;;;;;;5096648;28;20176;-79
2021/07/06 09:09:38;;;;;;;1.83;0.97;;;23.40;99.90;;;;;;5096475;28;20199;-80
2021/07/06 09:12:04;;;;;;;1.47;0.90;;;23.50;99.90;;;;;;5079017;28;20237;-81
2021/07/06 09:14:30;;;;;;;1.63;0.80;;;23.50;99.90;;;;;;5096688;28;20190;-80
2021/07/06 09:17:13;;;;;;;4.03;1.10;;;23.70;99.90;;;;;;5097012;28;20188;-80
2021/07/06 09:19:41;;;;;;;2.83;0.80;;;23.80;99.90;;;;;;5097149;28;20195;-80
2021/07/06 09:22:21;;;;;;;2.27;1.00;;;23.90;99.90;;;;;;5096220;28;20180;-80
2021/07/06 09:24:49;;;;;;;3.07;0.90;;;24.00;99.90;;;;;;5096483;28;20233;-80
2021/07/06 09:27:23;;;;;;;1.60;0.90;;;23.90;99.90;;;;;;5095491;28;20263;-80
2021/07/06 09:30:09;;;;;;;3.70;0.87;;;23.80;99.90;;;;;;5078124;28;20180;-80
2021/07/06 09:32:36;;;;;;;3.20;1.00;;;23.80;99.90;;;;;;5097089;28;20259;-80
2021/07/06 09:35:12;;;;;;;1.20;1.00;;;23.80;99.90;;;;;;5078288;28;20196;-80
2021/07/06 09:37:50;;;;;;;2.73;1.10;;;23.90;99.90;;;;;;5096570;28;20214;-80
2021/07/06 09:40:45;;;;;;;1.77;0.90;;;24.00;99.90;;;;;;5096983;28;20240;-80
2021/07/06 09:43:27;;;;;;;1.90;1.10;;;24.00;99.90;;;;;;5075453;28;20275;-81
2021/07/06 09:46:09;;;;;;;1.27;1.17;;;24.00;99.90;;;;;;5078710;28;20176;-80
2021/07/06 09:48:38;;;;;;;2.40;1.23;;;24.00;99.90;;;;;;5077901;28;20294;-79
2021/07/06 09:51:25;;;;;;;2.53;1.40;;;24.00;99.90;;;;;;5096386;28;20511;-80
2021/07/06 09:53:53;;;;;;;1.60;1.50;;;23.90;99.90;;;;;;5096154;28;20192;-80
2021/07/06 09:56:22;;;;;;;1.90;1.30;;;24.10;99.90;;;;;;5097155;28;20200;-80
2021/07/06 09:59:06;;;;;;;2.33;1.20;;;24.20;99.90;;;;;;5095754;28;20172;-80
2021/07/06 10:01:32;;;;;;;4.40;1.30;;;24.30;99.90;;;;;;5096643;28;20651;-79
2021/07/06 10:03:58;;;;;;;2.90;1.67;;;24.50;99.90;;;;;;5095846;28;20192;-80
2021/07/06 10:06:28;;;;;;;2.17;1.30;;;24.70;99.90;;;;;;5077416;28;20177;-79
2021/07/06 10:08:56;;;;;;;1.47;1.37;;;24.70;99.90;;;;;;5078074;28;20177;-80
2021/07/06 10:11:23;;;;;;;2.30;1.60;;;24.90;99.90;;;;;;5095561;28;20183;-80
2021/07/06 10:13:49;;;;;;;1.77;1.30;;;25.20;99.90;;;;;;5094908;28;20270;-80
2021/07/06 10:16:18;;;;;;;1.10;1.10;;;25.20;99.90;;;;;;5095336;28;20210;-80
2021/07/06 10:18:44;;;;;;;2.20;1.40;;;25.30;99.90;;;;;;5094974;28;20171;-81
2021/07/06 10:21:11;;;;;;;1.53;1.20;;;25.30;99.90;;;;;;5095300;28;20175;-81
2021/07/06 10:23:38;;;;;;;4.83;1.60;;;25.40;99.90;;;;;;5076389;28;20173;-80
2021/07/06 10:26:06;;;;;;;2.60;1.53;;;25.50;99.90;;;;;;5092348;28;20659;-80
2021/07/06 10:28:33;;;;;;;2.20;1.47;;;25.80;99.90;;;;;;5076987;28;20175;-80
2021/07/06 10:31:16;;;;;;;1.67;1.10;;;25.90;99.90;;;;;;5076769;28;20176;-82
2021/07/06 10:33:43;;;;;;;1.40;1.30;;;25.80;99.90;;;;;;5094404;28;20237;-81
2021/07/06 10:36:12;;;;;;;1.97;1.60;;;25.80;99.90;;;;;;5077674;28;20196;-80
2021/07/06 10:38:42;;;;;;;1.80;1.10;;;25.70;99.90;;;;;;5095888;28;20176;-80
2021/07/06 10:41:14;;;;;;;3.73;1.73;;;25.60;99.90;;;;;;5095924;28;20638;-80
2021/07/06 10:43:43;;;;;;;1.57;1.27;;;25.40;99.90;;;;;;5094346;28;20219;-80
2021/07/06 10:46:22;;;;;;;1.53;1.20;;;25.30;99.90;;;;;;5094947;28;20206;-80
2021/07/06 10:48:50;;;;;;;1.60;1.50;;;25.30;99.90;;;;;;5094575;28;20265;-80
2021/07/06 10:51:34;;;;;;;2.53;1.33;;;25.30;99.90;;;;;;5077414;28;20263;-80
2021/07/06 10:54:33;;;;;;;2.13;1.47;;;25.30;99.90;;;;;;5095389;28;20210;-80
2021/07/06 10:57:13;;;;;;;5.47;1.80;;;25.20;99.90;;;;;;5095287;28;20192;-79
2021/07/06 10:59:39;;;;;;;5.00;1.70;;;25.10;99.90;;;;;;5095558;28;20172;-79
2021/07/06 11:02:08;;;;;;;2.20;1.80;;;24.90;99.90;;;;;;5094535;28;20199;-79
2021/07/06 11:04:37;;;;;;;1.93;1.83;;;24.80;99.90;;;;;;5094422;28;20675;-79
2021/07/06 11:07:12;;;;;;;1.97;1.70;;;24.70;99.90;;;;;;5094935;28;20199;-79
2021/07/06 11:09:38;;;;;;;1.87;1.63;;;24.60;99.90;;;;;;5096795;28;20176;-80
2021/07/06 11:12:22;;;;;;;3.27;1.67;;;24.50;99.90;;;;;;5098898;28;20589;-80
2021/07/06 11:14:58;;;;;;;2.23;1.47;;;24.40;99.90;;;;;;5098504;28;20275;-80
2021/07/06 11:17:41;;;;;;;1.27;1.17;;;24.30;99.90;;;;;;5099638;28;20254;-80
2021/07/06 11:20:09;;;;;;;1.40;1.30;;;24.20;99.90;;;;;;5083012;28;20203;-80
2021/07/06 11:22:47;;;;;;;1.30;1.20;;;24.20;99.90;;;;;;5081617;28;20187;-80
2021/07/06 11:25:25;;;;;;;1.30;1.30;;;24.20;99.90;;;;;;5080207;28;20566;-79
2021/07/06 11:28:26;;;;;;;2.33;1.70;;;24.20;99.90;;;;;;5099349;28;20180;-81
2021/07/06 11:30:53;;;;;;;1.93;1.57;;;24.10;99.90;;;;;;5081006;28;20176;-80
2021/07/06 11:33:20;;;;;;;3.43;1.73;;;24.00;99.90;;;;;;5098979;28;20172;-80
2021/07/06 11:35:56;;;;;;;3.07;1.77;;;24.00;99.90;;;;;;5080559;28;20196;-80
2021/07/06 11:38:28;;;;;;;2.03;1.83;;;24.00;99.90;;;;;;5099681;28;20186;-80
2021/07/06 11:41:00;;;;;;;2.10;1.93;;;23.90;99.90;;;;;;5066330;28;20230;-80
2021/07/06 11:43:28;;;;;;;1.70;1.60;;;23.90;99.90;;;;;;5099122;28;20509;-79
2021/07/06 11:45:59;;;;;;;6.23;2.60;;;23.90;99.90;;;;;;5098700;28;20226;-80
2021/07/06 11:48:34;;;;;;;3.10;2.20;;;24.00;99.90;;;;;;5099800;28;20175;-80
2021/07/06 11:51:03;;;;;;;2.20;2.00;;;24.10;99.90;;;;;;5081270;28;20172;-79
2021/07/06 11:53:32;;;;;;;3.13;1.90;;;24.20;99.90;;;;;;5097659;28;20225;-79
2021/07/06 11:55:59;;;;;;;2.57;1.93;;;24.20;99.90;;;;;;5080202;28;20171;-80
2021/07/06 11:58:27;;;;;;;1.60;1.50;;;24.10;99.90;;;;;;5081160;28;20175;-79
2021/07/06 12:00:55;;;;;;;1.50;1.40;;;24.00;99.90;;;;;;5098657;28;20171;-80
2021/07/06 12:03:29;;;;;;;3.77;2.03;;;24.00;99.90;;;;;;5080381;28;20173;-80
2021/07/06 12:06:02;;;;;;;2.70;1.90;;;24.10;99.90;;;;;;5080952;28;20187;-79
2021/07/06 12:08:36;;;;;;;2.70;1.80;;;24.20;99.90;;;;;;5099248;28;20655;-80
2021/07/06 12:11:07;;;;;;;1.87;1.77;;;24.30;99.90;;;;;;5098539;28;20264;-79
2021/07/06 12:13:42;;;;;;;1.63;1.53;;;24.30;99.90;;;;;;5098319;28;20168;-79
2021/07/06 12:16:14;;;;;;;2.07;1.60;;;24.40;99.90;;;;;;5097992;28;20195;-80
2021/07/06 12:19:02;;;;;;;1.87;1.70;;;24.40;99.90;;;;;;5098670;28;20168;-80
2021/07/06 12:21:36;;;;;;;1.57;1.47;;;24.50;99.90;;;;;;5098015;28;20659;-80
2021/07/06 12:24:14;;;;;;;1.87;1.77;;;24.40;99.90;;;;;;5080076;28;20195;-79
2021/07/06 12:26:42;;;;;;;1.80;1.70;;;24.40;99.90;;;;;;5098184;28;20172;-80
2021/07/06 12:29:08;;;;;;;3.33;1.57;;;24.50;99.90;;;;;;5098638;28;20204;-80
2021/07/06 12:31:36;;;;;;;2.47;1.60;;;24.50;99.90;;;;;;5080963;28;20169;-80
2021/07/06 12:34:08;;;;;;;2.10;1.60;;;24.40;99.90;;;;;;5079660;28;20199;-80
2021/07/06 12:36:38;;;;;;;1.83;1.73;;;24.30;99.90;;;;;;5097865;28;20658;-80
2021/07/06 12:39:20;;;;;;;1.70;1.60;;;24.30;99.90;;;;;;5097872;28;20169;-80
2021/07/06 12:41:53;;;;;;;1.97;1.70;;;24.20;99.90;;;;;;5079388;28;20190;-79
2021/07/06 12:44:44;;;;;;;1.63;1.50;;;24.00;99.90;;;;;;5096394;28;20295;-80
2021/07/06 12:47:24;;;;;;;1.97;1.50;;;24.00;99.90;;;;;;5096474;28;20180;-80
2021/07/06 12:49:57;;;;;;;2.93;1.57;;;24.00;99.90;;;;;;5079660;28;20207;-80
2021/07/06 12:52:27;;;;;;;1.40;1.30;;;23.90;99.90;;;;;;5096857;28;20176;-80
2021/07/06 12:54:54;;;;;;;1.40;1.30;;;23.90;99.90;;;;;;5098525;28;20199;-80